Brendelen — EINR — position and weather

sailwx.info

Track history (hours):
 
Tides and Currents Weather Stations Pressure Air Temp Water Temp Dewpoint Dewpoint Depression Visibility Wind Speed Wind Dir Waves Ship Positions

Brendelen

Last reported at 2014-Jul-21 17:33 UTC. Time now 2014-Jul-26 15:14 UTC.
Position N 51°33' W 010°08'.

Length 64 m; draft 7.8 m.

Type: Fishing. MMSI: 250512000.

Date/timePositionNaut miles runAvg speedWind from/ knotsBaromVisibWave heightAir tempDewpointWater temp
2014-Jul-21 17:33N 51°33' W 010°08'10 9.8
2014-Jul-21 16:32N 51°39' W 009°55'0 0.3
2014-Jul-21 15:28N 51°39' W 009°54'0 0.0
2014-Jul-21 14:23N 51°39' W 009°54'0 0.0
2014-Jul-21 13:30N 51°39' W 009°54'0 0.0
2014-Jul-21 12:32N 51°39' W 009°54'0 0.0
2014-Jul-21 11:33N 51°39' W 009°54'0 0.0
2014-Jul-21 10:33N 51°39' W 009°54'3 2.5
2014-Jul-21 09:32N 51°37' W 009°56'  
2014-Jul-14 10:19N 54°33' W 008°43'911.2
2014-Jul-14 09:33N 54°36' W 008°28'2 2.3
2014-Jul-14 08:33N 54°38' W 008°26'0 0.0
2014-Jul-14 07:33N 54°38' W 008°26'0 0.0
2014-Jul-14 06:33N 54°38' W 008°26'0 0.0
2014-Jul-14 05:33N 54°38' W 008°26'0 0.0
2014-Jul-14 04:33N 54°38' W 008°26'0 0.0
2014-Jul-14 03:33N 54°38' W 008°26'0 0.0
2014-Jul-14 02:33N 54°38' W 008°26'0 0.0
2014-Jul-14 01:33N 54°38' W 008°26'0 0.0
2014-Jul-14 00:33N 54°38' W 008°26'0 0.0
2014-Jul-13 23:33N 54°38' W 008°26'0 0.0
2014-Jul-13 22:33N 54°38' W 008°26'0 0.0
2014-Jul-13 21:33N 54°38' W 008°26'0 0.0
2014-Jul-13 20:33N 54°38' W 008°26'0 0.0
2014-Jul-13 19:33N 54°38' W 008°26'0 0.0
2014-Jul-13 18:33N 54°38' W 008°26'0 0.0
2014-Jul-13 17:33N 54°38' W 008°26'0 0.0
2014-Jul-13 16:33N 54°38' W 008°26'0 0.0
2014-Jul-13 15:33N 54°38' W 008°26'0 0.0
2014-Jul-13 14:33N 54°38' W 008°26'0 0.0
2014-Jul-13 13:33N 54°38' W 008°26'0 0.0
2014-Jul-13 12:33N 54°38' W 008°26'0 0.0
2014-Jul-13 11:33N 54°38' W 008°26'0 0.0
2014-Jul-13 10:33N 54°38' W 008°26'0 0.0
2014-Jul-13 09:33N 54°38' W 008°26'0 0.0
2014-Jul-13 08:33N 54°38' W 008°26'0 0.0
2014-Jul-13 07:33N 54°38' W 008°26'0 0.0
2014-Jul-13 06:33N 54°38' W 008°26'0 0.0
2014-Jul-13 05:33N 54°38' W 008°26'0 0.0
2014-Jul-13 04:33N 54°38' W 008°26'0 0.0
2014-Jul-13 03:33N 54°38' W 008°26'0 0.0
2014-Jul-13 02:33N 54°38' W 008°26'0 0.0
2014-Jul-13 01:33N 54°38' W 008°26'0 0.0
2014-Jul-13 00:33N 54°38' W 008°26'0 0.0
2014-Jul-12 23:33N 54°38' W 008°26'0 0.0
2014-Jul-12 22:33N 54°38' W 008°26'0 0.0
2014-Jul-12 21:33N 54°38' W 008°26'0 0.0
2014-Jul-12 20:32N 54°38' W 008°26'0 0.0
2014-Jul-12 19:33N 54°38' W 008°26'0 0.0
2014-Jul-12 18:33N 54°38' W 008°26'0 0.0
2014-Jul-12 17:33N 54°38' W 008°26'0 0.0
2014-Jul-12 16:33N 54°38' W 008°26'0 0.0
2014-Jul-12 15:33N 54°38' W 008°26'0 0.0
2014-Jul-12 14:33N 54°38' W 008°26'0 0.0
2014-Jul-12 13:33N 54°38' W 008°26'0 0.0
2014-Jul-12 12:33N 54°38' W 008°26'0 0.0
2014-Jul-12 11:33N 54°38' W 008°26'0 0.0
2014-Jul-12 10:33N 54°38' W 008°26'0 0.0
2014-Jul-12 09:33N 54°38' W 008°26'0 0.0
2014-Jul-12 08:33N 54°38' W 008°26'0 0.0
2014-Jul-12 07:33N 54°38' W 008°26'0 0.0
2014-Jul-12 06:33N 54°38' W 008°26'0 0.0
2014-Jul-12 05:33N 54°38' W 008°26'0 0.0
2014-Jul-12 04:33N 54°38' W 008°26'0 0.0
2014-Jul-12 03:33N 54°38' W 008°26'0 0.0
2014-Jul-12 02:33N 54°38' W 008°26'0 0.0
2014-Jul-12 01:33N 54°38' W 008°26'0 0.0
2014-Jul-12 00:33N 54°38' W 008°26'0 0.0
2014-Jul-11 23:33N 54°38' W 008°26'0 0.0
2014-Jul-11 22:33N 54°38' W 008°26'0 0.0
2014-Jul-11 21:33N 54°38' W 008°26'0 0.0
2014-Jul-11 20:33N 54°38' W 008°26'0 0.0
2014-Jul-11 19:33N 54°38' W 008°26'0 0.0
2014-Jul-11 18:33N 54°38' W 008°26'0 0.0
2014-Jul-11 17:33N 54°38' W 008°26'  
Track history (hours):
 
Tides and Currents Weather Stations Pressure Air Temp Water Temp Dewpoint Dewpoint Depression Visibility Wind Speed Wind Dir Waves Ship Positions

Brendelen

Last reported at 2014-Jul-21 17:33 UTC. Time now 2014-Jul-26 15:14 UTC.
Position N 51°33' W 010°08'.

Length 64 m; draft 7.8 m.

Type: Fishing. MMSI: 250512000.

Date/timePositionNaut miles runAvg speedWind from/ knotsBaromVisibWave heightAir tempDewpointWater temp
2014-Jul-21 17:33N 51°33' W 010°08'10 9.8
2014-Jul-21 16:32N 51°39' W 009°55'0 0.3
2014-Jul-21 15:28N 51°39' W 009°54'0 0.0
2014-Jul-21 14:23N 51°39' W 009°54'0 0.0
2014-Jul-21 13:30N 51°39' W 009°54'0 0.0
2014-Jul-21 12:32N 51°39' W 009°54'0 0.0
2014-Jul-21 11:33N 51°39' W 009°54'0 0.0
2014-Jul-21 10:33N 51°39' W 009°54'3 2.5
2014-Jul-21 09:32N 51°37' W 009°56'  
2014-Jul-14 10:19N 54°33' W 008°43'911.2
2014-Jul-14 09:33N 54°36' W 008°28'2 2.3
2014-Jul-14 08:33N 54°38' W 008°26'0 0.0
2014-Jul-14 07:33N 54°38' W 008°26'0 0.0
2014-Jul-14 06:33N 54°38' W 008°26'0 0.0
2014-Jul-14 05:33N 54°38' W 008°26'0 0.0
2014-Jul-14 04:33N 54°38' W 008°26'0 0.0
2014-Jul-14 03:33N 54°38' W 008°26'0 0.0
2014-Jul-14 02:33N 54°38' W 008°26'0 0.0
2014-Jul-14 01:33N 54°38' W 008°26'0 0.0
2014-Jul-14 00:33N 54°38' W 008°26'0 0.0
2014-Jul-13 23:33N 54°38' W 008°26'0 0.0
2014-Jul-13 22:33N 54°38' W 008°26'0 0.0
2014-Jul-13 21:33N 54°38' W 008°26'0 0.0
2014-Jul-13 20:33N 54°38' W 008°26'0 0.0
2014-Jul-13 19:33N 54°38' W 008°26'0 0.0
2014-Jul-13 18:33N 54°38' W 008°26'0 0.0
2014-Jul-13 17:33N 54°38' W 008°26'0 0.0
2014-Jul-13 16:33N 54°38' W 008°26'0 0.0
2014-Jul-13 15:33N 54°38' W 008°26'0 0.0
2014-Jul-13 14:33N 54°38' W 008°26'0 0.0
2014-Jul-13 13:33N 54°38' W 008°26'0 0.0
2014-Jul-13 12:33N 54°38' W 008°26'0 0.0
2014-Jul-13 11:33N 54°38' W 008°26'0 0.0
2014-Jul-13 10:33N 54°38' W 008°26'0 0.0
2014-Jul-13 09:33N 54°38' W 008°26'0 0.0
2014-Jul-13 08:33N 54°38' W 008°26'0 0.0
2014-Jul-13 07:33N 54°38' W 008°26'0 0.0
2014-Jul-13 06:33N 54°38' W 008°26'0 0.0
2014-Jul-13 05:33N 54°38' W 008°26'0 0.0
2014-Jul-13 04:33N 54°38' W 008°26'0 0.0
2014-Jul-13 03:33N 54°38' W 008°26'0 0.0
2014-Jul-13 02:33N 54°38' W 008°26'0 0.0
2014-Jul-13 01:33N 54°38' W 008°26'0 0.0
2014-Jul-13 00:33N 54°38' W 008°26'0 0.0
2014-Jul-12 23:33N 54°38' W 008°26'0 0.0
2014-Jul-12 22:33N 54°38' W 008°26'0 0.0
2014-Jul-12 21:33N 54°38' W 008°26'0 0.0
2014-Jul-12 20:32N 54°38' W 008°26'0 0.0
2014-Jul-12 19:33N 54°38' W 008°26'0 0.0
2014-Jul-12 18:33N 54°38' W 008°26'0 0.0
2014-Jul-12 17:33N 54°38' W 008°26'0 0.0
2014-Jul-12 16:33N 54°38' W 008°26'0 0.0
2014-Jul-12 15:33N 54°38' W 008°26'0 0.0
2014-Jul-12 14:33N 54°38' W 008°26'0 0.0
2014-Jul-12 13:33N 54°38' W 008°26'0 0.0
2014-Jul-12 12:33N 54°38' W 008°26'0 0.0
2014-Jul-12 11:33N 54°38' W 008°26'0 0.0
2014-Jul-12 10:33N 54°38' W 008°26'0 0.0
2014-Jul-12 09:33N 54°38' W 008°26'0 0.0
2014-Jul-12 08:33N 54°38' W 008°26'0 0.0
2014-Jul-12 07:33N 54°38' W 008°26'0 0.0
2014-Jul-12 06:33N 54°38' W 008°26'0 0.0
2014-Jul-12 05:33N 54°38' W 008°26'0 0.0
2014-Jul-12 04:33N 54°38' W 008°26'0 0.0
2014-Jul-12 03:33N 54°38' W 008°26'0 0.0
2014-Jul-12 02:33N 54°38' W 008°26'0 0.0
2014-Jul-12 01:33N 54°38' W 008°26'0 0.0
2014-Jul-12 00:33N 54°38' W 008°26'0 0.0
2014-Jul-11 23:33N 54°38' W 008°26'0 0.0
2014-Jul-11 22:33N 54°38' W 008°26'0 0.0
2014-Jul-11 21:33N 54°38' W 008°26'0 0.0
2014-Jul-11 20:33N 54°38' W 008°26'0 0.0
2014-Jul-11 19:33N 54°38' W 008°26'0 0.0
2014-Jul-11 18:33N 54°38' W 008°26'0 0.0
2014-Jul-11 17:33N 54°38' W 008°26'  

Dump ship's entire track history